sensor_id;sensor_type;location;lat;lon;timestamp;pressure;altitude;pressure_sealevel;temperature;humidity
20077;BME280;12348;42.710;23.378;2022-10-16T00:03:58;95790.31;;;7.06;100.00
20077;BME280;12348;42.710;23.378;2022-10-16T00:06:26;95787.88;;;7.04;100.00
20077;BME280;12348;42.710;23.378;2022-10-16T00:08:53;95789.56;;;7.11;100.00
20077;BME280;12348;42.710;23.378;2022-10-16T00:11:23;95788.06;;;6.98;100.00
20077;BME280;12348;42.710;23.378;2022-10-16T00:13:55;95790.31;;;7.06;100.00
20077;BME280;12348;42.710;23.378;2022-10-16T00:16:22;95794.16;;;6.93;100.00
20077;BME280;12348;42.710;23.378;2022-10-16T00:18:49;95799.28;;;6.95;100.00
20077;BME280;12348;42.710;23.378;2022-10-16T00:21:18;95797.78;;;7.04;100.00
20077;BME280;12348;42.710;23.378;2022-10-16T00:23:46;95802.19;;;6.93;100.00
20077;BME280;12348;42.710;23.378;2022-10-16T00:26:14;95801.09;;;6.89;100.00
20077;BME280;12348;42.710;23.378;2022-10-16T00:28:41;95798.41;;;6.89;100.00
20077;BME280;12348;42.710;23.378;2022-10-16T00:31:10;95797.53;;;7.05;100.00
20077;BME280;12348;42.710;23.378;2022-10-16T00:33:38;95801.88;;;7.12;100.00
20077;BME280;12348;42.710;23.378;2022-10-16T00:36:06;95806.94;;;7.08;100.00
20077;BME280;12348;42.710;23.378;2022-10-16T00:38:34;95811.97;;;7.04;100.00
20077;BME280;12348;42.710;23.378;2022-10-16T00:41:01;95809.97;;;7.17;100.00
20077;BME280;12348;42.710;23.378;2022-10-16T00:43:38;95813.09;;;7.09;100.00
20077;BME280;12348;42.710;23.378;2022-10-16T00:46:13;95810.41;;;7.09;100.00
20077;BME280;12348;42.710;23.378;2022-10-16T00:48:40;95798.66;;;7.10;100.00
20077;BME280;12348;42.710;23.378;2022-10-16T00:51:08;95811.34;;;6.97;100.00
20077;BME280;12348;42.710;23.378;2022-10-16T00:53:35;95801.72;;;6.96;100.00
20077;BME280;12348;42.710;23.378;2022-10-16T00:56:03;95798.16;;;6.91;100.00
20077;BME280;12348;42.710;23.378;2022-10-16T00:58:30;95801.56;;;6.86;100.00
20077;BME280;12348;42.710;23.378;2022-10-16T01:00:56;95801.53;;;6.81;100.00
20077;BME280;12348;42.710;23.378;2022-10-16T01:03:27;95805.19;;;6.75;100.00
20077;BME280;12348;42.710;23.378;2022-10-16T01:06:07;95819.78;;;6.84;100.00
20077;BME280;12348;42.710;23.378;2022-10-16T01:09:06;95815.97;;;6.80;100.00
20077;BME280;12348;42.710;23.378;2022-10-16T01:11:41;95817.75;;;6.74;100.00
20077;BME280;12348;42.710;23.378;2022-10-16T01:14:16;95821.34;;;6.80;100.00
20077;BME280;12348;42.710;23.378;2022-10-16T01:16:50;95821.06;;;6.82;100.00
20077;BME280;12348;42.710;23.378;2022-10-16T01:19:31;95817.28;;;6.77;100.00
20077;BME280;12348;42.710;23.378;2022-10-16T01:22:07;95805.13;;;6.70;100.00
20077;BME280;12348;42.710;23.378;2022-10-16T01:24:38;95803.09;;;6.77;100.00
20077;BME280;12348;42.710;23.378;2022-10-16T01:27:09;95801.03;;;6.62;100.00
20077;BME280;12348;42.710;23.378;2022-10-16T01:29:41;95802.00;;;6.56;100.00
20077;BME280;12348;42.710;23.378;2022-10-16T01:32:15;95806.00;;;6.53;100.00
20077;BME280;12348;42.710;23.378;2022-10-16T01:34:48;95809.81;;;6.41;100.00
20077;BME280;12348;42.710;23.378;2022-10-16T01:37:22;95808.38;;;6.33;100.00
20077;BME280;12348;42.710;23.378;2022-10-16T01:39:50;95806.66;;;6.27;100.00
20077;BME280;12348;42.710;23.378;2022-10-16T01:42:26;95803.50;;;6.30;100.00
20077;BME280;12348;42.710;23.378;2022-10-16T01:44:56;95809.59;;;6.25;100.00
20077;BME280;12348;42.710;23.378;2022-10-16T01:47:25;95813.81;;;6.21;100.00
20077;BME280;12348;42.710;23.378;2022-10-16T01:49:54;95816.00;;;6.24;100.00
20077;BME280;12348;42.710;23.378;2022-10-16T01:52:25;95816.81;;;6.25;100.00
20077;BME280;12348;42.710;23.378;2022-10-16T01:54:54;95823.47;;;6.22;100.00
20077;BME280;12348;42.710;23.378;2022-10-16T01:57:24;95821.84;;;6.21;100.00
20077;BME280;12348;42.710;23.378;2022-10-16T01:59:56;95822.06;;;6.20;100.00
20077;BME280;12348;42.710;23.378;2022-10-16T02:02:26;95818.19;;;6.11;100.00
20077;BME280;12348;42.710;23.378;2022-10-16T02:04:58;95821.34;;;6.07;100.00
20077;BME280;12348;42.710;23.378;2022-10-16T02:07:25;95823.97;;;6.02;100.00
20077;BME280;12348;42.710;23.378;2022-10-16T02:09:52;95826.22;;;6.11;100.00
20077;BME280;12348;42.710;23.378;2022-10-16T02:12:23;95830.28;;;6.13;100.00
20077;BME280;12348;42.710;23.378;2022-10-16T02:14:51;95838.63;;;6.00;100.00
20077;BME280;12348;42.710;23.378;2022-10-16T02:17:19;95837.31;;;6.02;100.00
20077;BME280;12348;42.710;23.378;2022-10-16T02:19:48;95832.84;;;5.91;100.00
20077;BME280;12348;42.710;23.378;2022-10-16T02:22:18;95839.13;;;5.85;100.00
20077;BME280;12348;42.710;23.378;2022-10-16T02:24:50;95842.81;;;5.79;100.00
20077;BME280;12348;42.710;23.378;2022-10-16T02:27:24;95849.75;;;5.80;100.00
20077;BME280;12348;42.710;23.378;2022-10-16T02:29:55;95849.81;;;5.68;100.00
20077;BME280;12348;42.710;23.378;2022-10-16T02:32:28;95844.03;;;5.59;100.00
20077;BME280;12348;42.710;23.378;2022-10-16T02:34:57;95860.31;;;5.58;100.00
20077;BME280;12348;42.710;23.378;2022-10-16T02:37:26;95848.59;;;5.59;100.00
20077;BME280;12348;42.710;23.378;2022-10-16T02:39:54;95850.19;;;5.60;100.00
20077;BME280;12348;42.710;23.378;2022-10-16T02:42:29;95852.69;;;5.50;100.00
20077;BME280;12348;42.710;23.378;2022-10-16T02:44:56;95849.13;;;5.44;100.00
20077;BME280;12348;42.710;23.378;2022-10-16T02:47:22;95857.59;;;5.41;100.00
20077;BME280;12348;42.710;23.378;2022-10-16T02:49:49;95852.75;;;5.38;100.00
20077;BME280;12348;42.710;23.378;2022-10-16T02:52:16;95857.91;;;5.28;100.00
20077;BME280;12348;42.710;23.378;2022-10-16T02:54:43;95864.19;;;5.22;100.00
20077;BME280;12348;42.710;23.378;2022-10-16T02:57:09;95865.47;;;5.19;100.00
20077;BME280;12348;42.710;23.378;2022-10-16T02:59:38;95860.81;;;5.15;100.00
20077;BME280;12348;42.710;23.378;2022-10-16T03:02:04;95866.41;;;5.13;100.00
20077;BME280;12348;42.710;23.378;2022-10-16T03:04:31;95866.50;;;5.18;100.00
20077;BME280;12348;42.710;23.378;2022-10-16T03:06:58;95866.63;;;5.11;100.00
20077;BME280;12348;42.710;23.378;2022-10-16T03:09:25;95872.94;;;5.05;100.00
20077;BME280;12348;42.710;23.378;2022-10-16T03:11:51;95860.53;;;4.99;100.00
20077;BME280;12348;42.710;23.378;2022-10-16T03:14:19;95872.50;;;4.97;100.00
20077;BME280;12348;42.710;23.378;2022-10-16T03:16:47;95871.09;;;4.94;100.00
20077;BME280;12348;42.710;23.378;2022-10-16T03:19:16;95868.66;;;4.93;100.00
20077;BME280;12348;42.710;23.378;2022-10-16T03:21:43;95871.09;;;4.94;100.00
20077;BME280;12348;42.710;23.378;2022-10-16T03:24:10;95871.91;;;4.95;100.00
20077;BME280;12348;42.710;23.378;2022-10-16T03:26:37;95881.44;;;4.91;100.00
20077;BME280;12348;42.710;23.378;2022-10-16T03:29:04;95879.56;;;4.91;100.00
20077;BME280;12348;42.710;23.378;2022-10-16T03:31:31;95876.00;;;4.85;100.00
20077;BME280;12348;42.710;23.378;2022-10-16T03:33:59;95877.75;;;4.80;100.00
20077;BME280;12348;42.710;23.378;2022-10-16T03:36:26;95863.13;;;4.82;100.00
20077;BME280;12348;42.710;23.378;2022-10-16T03:38:53;95878.00;;;4.78;100.00
20077;BME280;12348;42.710;23.378;2022-10-16T03:41:19;95874.59;;;4.83;100.00
20077;BME280;12348;42.710;23.378;2022-10-16T03:43:46;95872.41;;;4.80;100.00
20077;BME280;12348;42.710;23.378;2022-10-16T03:46:13;95870.78;;;4.79;100.00
20077;BME280;12348;42.710;23.378;2022-10-16T03:48:40;95876.47;;;4.82;100.00
20077;BME280;12348;42.710;23.378;2022-10-16T03:51:08;95871.69;;;4.84;100.00
20077;BME280;12348;42.710;23.378;2022-10-16T03:53:34;95868.31;;;4.89;100.00
20077;BME280;12348;42.710;23.378;2022-10-16T03:56:01;95868.81;;;4.86;100.00
20077;BME280;12348;42.710;23.378;2022-10-16T03:58:28;95869.72;;;4.92;100.00
20077;BME280;12348;42.710;23.378;2022-10-16T04:00:55;95874.00;;;4.93;100.00
20077;BME280;12348;42.710;23.378;2022-10-16T04:03:22;95868.00;;;4.85;100.00
20077;BME280;12348;42.710;23.378;2022-10-16T04:05:48;95874.25;;;4.91;100.00
20077;BME280;12348;42.710;23.378;2022-10-16T04:08:17;95866.81;;;4.93;100.00
20077;BME280;12348;42.710;23.378;2022-10-16T04:10:43;95862.88;;;4.84;100.00
20077;BME280;12348;42.710;23.378;2022-10-16T04:13:10;95873.00;;;4.82;100.00
20077;BME280;12348;42.710;23.378;2022-10-16T04:15:38;95877.16;;;4.78;100.00
20077;BME280;12348;42.710;23.378;2022-10-16T04:18:05;95872.53;;;4.73;100.00
20077;BME280;12348;42.710;23.378;2022-10-16T04:20:33;95883.19;;;4.73;100.00
20077;BME280;12348;42.710;23.378;2022-10-16T04:23:00;95881.22;;;4.69;100.00
20077;BME280;12348;42.710;23.378;2022-10-16T04:25:28;95878.00;;;4.78;100.00
20077;BME280;12348;42.710;23.378;2022-10-16T04:27:55;95878.78;;;4.79;100.00
20077;BME280;12348;42.710;23.378;2022-10-16T04:30:22;95884.34;;;4.77;100.00
20077;BME280;12348;42.710;23.378;2022-10-16T04:32:50;95880.06;;;4.76;100.00
20077;BME280;12348;42.710;23.378;2022-10-16T04:35:17;95886.09;;;4.83;100.00
20077;BME280;12348;42.710;23.378;2022-10-16T04:37:44;95885.00;;;4.96;100.00
20077;BME280;12348;42.710;23.378;2022-10-16T04:40:12;95889.75;;;5.06;100.00
20077;BME280;12348;42.710;23.378;2022-10-16T04:42:40;95892.00;;;4.97;100.00
20077;BME280;12348;42.710;23.378;2022-10-16T04:45:08;95890.47;;;5.01;100.00
20077;BME280;12348;42.710;23.378;2022-10-16T04:47:35;95898.09;;;5.09;100.00
20077;BME280;12348;42.710;23.378;2022-10-16T04:50:02;95896.00;;;5.52;100.00
20077;BME280;12348;42.710;23.378;2022-10-16T04:52:29;95895.06;;;6.03;100.00
20077;BME280;12348;42.710;23.378;2022-10-16T04:54:57;95894.28;;;6.53;100.00
20077;BME280;12348;42.710;23.378;2022-10-16T04:57:26;95903.97;;;7.15;100.00
20077;BME280;12348;42.710;23.378;2022-10-16T04:59:55;95903.34;;;7.79;100.00
20077;BME280;12348;42.710;23.378;2022-10-16T05:02:22;95909.75;;;8.32;100.00
20077;BME280;12348;42.710;23.378;2022-10-16T05:04:48;95913.13;;;8.87;100.00
20077;BME280;12348;42.710;23.378;2022-10-16T05:07:15;95917.81;;;9.64;100.00
20077;BME280;12348;42.710;23.378;2022-10-16T05:09:42;95926.28;;;10.09;100.00
20077;BME280;12348;42.710;23.378;2022-10-16T05:12:08;95924.44;;;10.60;100.00
20077;BME280;12348;42.710;23.378;2022-10-16T05:14:35;95924.38;;;11.22;100.00
20077;BME280;12348;42.710;23.378;2022-10-16T05:17:03;95929.34;;;11.69;100.00
20077;BME280;12348;42.710;23.378;2022-10-16T05:19:30;95924.06;;;12.43;100.00
20077;BME280;12348;42.710;23.378;2022-10-16T05:21:57;95932.75;;;13.32;100.00
20077;BME280;12348;42.710;23.378;2022-10-16T05:24:24;95937.78;;;13.44;100.00
20077;BME280;12348;42.710;23.378;2022-10-16T05:26:51;95938.84;;;12.90;100.00
20077;BME280;12348;42.710;23.378;2022-10-16T05:29:18;95940.31;;;13.35;94.27
20077;BME280;12348;42.710;23.378;2022-10-16T05:31:45;95940.53;;;13.63;91.96
20077;BME280;12348;42.710;23.378;2022-10-16T05:34:13;95934.72;;;13.50;93.71
20077;BME280;12348;42.710;23.378;2022-10-16T05:36:39;95940.03;;;14.22;90.79
20077;BME280;12348;42.710;23.378;2022-10-16T05:39:06;95929.13;;;15.44;78.56
20077;BME280;12348;42.710;23.378;2022-10-16T05:41:33;95942.25;;;14.77;80.78
20077;BME280;12348;42.710;23.378;2022-10-16T05:43:59;95942.53;;;15.08;80.79
20077;BME280;12348;42.710;23.378;2022-10-16T05:46:26;95944.72;;;16.21;72.16
20077;BME280;12348;42.710;23.378;2022-10-16T05:48:53;95953.69;;;15.94;72.31
20077;BME280;12348;42.710;23.378;2022-10-16T05:51:21;95947.56;;;16.39;68.76
20077;BME280;12348;42.710;23.378;2022-10-16T05:53:48;95947.44;;;17.03;65.88
20077;BME280;12348;42.710;23.378;2022-10-16T05:56:15;95960.16;;;16.85;65.52
20077;BME280;12348;42.710;23.378;2022-10-16T05:58:42;95958.75;;;16.37;68.31
20077;BME280;12348;42.710;23.378;2022-10-16T06:01:11;95960.72;;;16.09;71.37
20077;BME280;12348;42.710;23.378;2022-10-16T06:03:38;95964.31;;;17.36;65.00
20077;BME280;12348;42.710;23.378;2022-10-16T06:06:09;95966.16;;;18.55;57.76
20077;BME280;12348;42.710;23.378;2022-10-16T06:08:37;95966.59;;;20.29;51.98
20077;BME280;12348;42.710;23.378;2022-10-16T06:11:06;95977.88;;;20.78;50.38
20077;BME280;12348;42.710;23.378;2022-10-16T06:13:33;95965.16;;;22.31;48.66
20077;BME280;12348;42.710;23.378;2022-10-16T06:16:00;95969.19;;;22.86;45.14
20077;BME280;12348;42.710;23.378;2022-10-16T06:18:28;95977.25;;;23.07;43.56
20077;BME280;12348;42.710;23.378;2022-10-16T06:20:56;95978.41;;;22.04;45.88
20077;BME280;12348;42.710;23.378;2022-10-16T06:23:24;95980.94;;;20.55;48.13
20077;BME280;12348;42.710;23.378;2022-10-16T06:25:53;95988.97;;;19.28;52.17
20077;BME280;12348;42.710;23.378;2022-10-16T06:28:20;95988.22;;;20.93;49.85
20077;BME280;12348;42.710;23.378;2022-10-16T06:30:47;95993.72;;;19.49;52.61
20077;BME280;12348;42.710;23.378;2022-10-16T06:33:14;95990.41;;;19.90;51.78
20077;BME280;12348;42.710;23.378;2022-10-16T06:35:41;95987.31;;;20.00;52.44
20077;BME280;12348;42.710;23.378;2022-10-16T06:38:07;96000.03;;;21.72;48.59
20077;BME280;12348;42.710;23.378;2022-10-16T06:40:34;95988.38;;;21.63;46.55
20077;BME280;12348;42.710;23.378;2022-10-16T06:43:02;95994.88;;;23.06;44.62
20077;BME280;12348;42.710;23.378;2022-10-16T06:45:29;95995.09;;;23.69;43.83
20077;BME280;12348;42.710;23.378;2022-10-16T06:47:55;95998.84;;;23.92;42.35
20077;BME280;12348;42.710;23.378;2022-10-16T06:50:22;95997.06;;;25.18;40.82
20077;BME280;12348;42.710;23.378;2022-10-16T06:52:49;96010.56;;;24.21;41.47
20077;BME280;12348;42.710;23.378;2022-10-16T06:55:16;96005.91;;;25.27;40.35
20077;BME280;12348;42.710;23.378;2022-10-16T06:57:43;96001.59;;;26.11;39.38
20077;BME280;12348;42.710;23.378;2022-10-16T07:00:14;96009.19;;;26.41;38.30
20077;BME280;12348;42.710;23.378;2022-10-16T07:02:41;96017.41;;;24.11;41.86
20077;BME280;12348;42.710;23.378;2022-10-16T07:05:08;96017.38;;;22.59;45.46
20077;BME280;12348;42.710;23.378;2022-10-16T07:07:35;96021.03;;;22.14;46.96
20077;BME280;12348;42.710;23.378;2022-10-16T07:10:02;96010.81;;;21.90;46.92
20077;BME280;12348;42.710;23.378;2022-10-16T07:12:29;96014.94;;;21.50;47.98
20077;BME280;12348;42.710;23.378;2022-10-16T07:14:55;96019.41;;;21.22;49.84
20077;BME280;12348;42.710;23.378;2022-10-16T07:17:23;96019.19;;;21.27;49.61
20077;BME280;12348;42.710;23.378;2022-10-16T07:19:50;96032.19;;;19.00;56.88
20077;BME280;12348;42.710;23.378;2022-10-16T07:22:18;96020.91;;;19.63;55.94
20077;BME280;12348;42.710;23.378;2022-10-16T07:24:45;96023.44;;;20.15;54.95
20077;BME280;12348;42.710;23.378;2022-10-16T07:27:12;96024.38;;;19.80;56.85
20077;BME280;12348;42.710;23.378;2022-10-16T07:29:40;96029.97;;;22.23;49.82
20077;BME280;12348;42.710;23.378;2022-10-16T07:32:07;96023.78;;;22.50;48.83
20077;BME280;12348;42.710;23.378;2022-10-16T07:34:35;96027.28;;;23.40;45.80
20077;BME280;12348;42.710;23.378;2022-10-16T07:37:02;96030.84;;;23.69;45.87
20077;BME280;12348;42.710;23.378;2022-10-16T07:39:29;96022.13;;;24.58;42.88
20077;BME280;12348;42.710;23.378;2022-10-16T07:41:55;96028.13;;;22.76;46.41
20077;BME280;12348;42.710;23.378;2022-10-16T07:44:22;96038.81;;;22.41;47.86
20077;BME280;12348;42.710;23.378;2022-10-16T07:46:49;96027.03;;;21.28;48.93
20077;BME280;12348;42.710;23.378;2022-10-16T07:49:15;96028.88;;;22.03;48.71
20077;BME280;12348;42.710;23.378;2022-10-16T07:51:43;96028.47;;;21.56;49.09
20077;BME280;12348;42.710;23.378;2022-10-16T07:54:10;96026.88;;;20.92;50.93
20077;BME280;12348;42.710;23.378;2022-10-16T07:56:37;96030.31;;;22.21;48.85
20077;BME280;12348;42.710;23.378;2022-10-16T07:59:04;96025.63;;;22.59;46.72
20077;BME280;12348;42.710;23.378;2022-10-16T08:01:30;96033.00;;;19.01;57.98
20077;BME280;12348;42.710;23.378;2022-10-16T08:03:57;96033.13;;;19.04;63.87
20077;BME280;12348;42.710;23.378;2022-10-16T08:06:24;96025.56;;;20.39;55.34
20077;BME280;12348;42.710;23.378;2022-10-16T08:08:52;96037.84;;;21.34;52.30
20077;BME280;12348;42.710;23.378;2022-10-16T08:11:19;96032.09;;;21.47;50.36
20077;BME280;12348;42.710;23.378;2022-10-16T08:13:46;96034.06;;;21.17;52.25
20077;BME280;12348;42.710;23.378;2022-10-16T08:16:13;96028.59;;;20.54;56.47
20077;BME280;12348;42.710;23.378;2022-10-16T08:18:40;96024.59;;;21.69;52.61
20077;BME280;12348;42.710;23.378;2022-10-16T08:21:13;96025.25;;;22.97;48.23
20077;BME280;12348;42.710;23.378;2022-10-16T08:23:40;96023.06;;;23.03;47.54
20077;BME280;12348;42.710;23.378;2022-10-16T08:26:08;96018.50;;;22.70;47.25
20077;BME280;12348;42.710;23.378;2022-10-16T08:28:35;96019.59;;;21.71;48.73
20077;BME280;12348;42.710;23.378;2022-10-16T08:31:07;96020.75;;;21.70;50.31
20077;BME280;12348;42.710;23.378;2022-10-16T08:33:34;96012.50;;;22.52;47.51
20077;BME280;12348;42.710;23.378;2022-10-16T08:36:02;96012.00;;;22.25;48.19
20077;BME280;12348;42.710;23.378;2022-10-16T08:38:29;96012.47;;;22.27;45.92
20077;BME280;12348;42.710;23.378;2022-10-16T08:41:02;96016.50;;;23.07;45.05
20077;BME280;12348;42.710;23.378;2022-10-16T08:43:45;96015.81;;;20.29;49.71
20077;BME280;12348;42.710;23.378;2022-10-16T08:46:31;96017.41;;;21.76;47.19
20077;BME280;12348;42.710;23.378;2022-10-16T08:49:03;96024.84;;;20.80;47.92
20077;BME280;12348;42.710;23.378;2022-10-16T08:51:36;96024.28;;;20.95;49.50
20077;BME280;12348;42.710;23.378;2022-10-16T08:54:04;96026.19;;;20.44;50.25
20077;BME280;12348;42.710;23.378;2022-10-16T08:56:31;96027.09;;;22.07;47.22
20077;BME280;12348;42.710;23.378;2022-10-16T08:59:00;96029.88;;;22.56;45.80
20077;BME280;12348;42.710;23.378;2022-10-16T09:01:37;96029.81;;;23.05;43.64
20077;BME280;12348;42.710;23.378;2022-10-16T09:04:28;96031.56;;;22.61;44.58
20077;BME280;12348;42.710;23.378;2022-10-16T09:07:01;96026.78;;;22.58;42.70
20077;BME280;12348;42.710;23.378;2022-10-16T09:09:53;96026.59;;;21.47;45.01
20077;BME280;12348;42.710;23.378;2022-10-16T09:12:26;96027.47;;;21.18;46.47
20077;BME280;12348;42.710;23.378;2022-10-16T09:15:02;96018.97;;;21.53;45.91
20077;BME280;12348;42.710;23.378;2022-10-16T09:17:40;96017.34;;;21.85;44.65
20077;BME280;12348;42.710;23.378;2022-10-16T09:20:22;96013.56;;;21.77;45.92
20077;BME280;12348;42.710;23.378;2022-10-16T09:22:55;96024.16;;;21.79;44.53
20077;BME280;12348;42.710;23.378;2022-10-16T09:25:27;96006.88;;;22.24;44.59
20077;BME280;12348;42.710;23.378;2022-10-16T09:27:56;96024.91;;;22.13;44.12
20077;BME280;12348;42.710;23.378;2022-10-16T09:30:28;96018.53;;;21.63;43.77
20077;BME280;12348;42.710;23.378;2022-10-16T09:32:57;96013.84;;;22.58;43.01
20077;BME280;12348;42.710;23.378;2022-10-16T09:35:31;96014.41;;;22.51;43.32
20077;BME280;12348;42.710;23.378;2022-10-16T09:37:59;96014.50;;;21.94;45.82
20077;BME280;12348;42.710;23.378;2022-10-16T09:40:28;96010.63;;;22.07;44.49
20077;BME280;12348;42.710;23.378;2022-10-16T09:43:01;96012.47;;;23.45;41.41
20077;BME280;12348;42.710;23.378;2022-10-16T09:45:29;96017.47;;;23.55;41.60
20077;BME280;12348;42.710;23.378;2022-10-16T09:47:56;96000.53;;;24.29;39.66
20077;BME280;12348;42.710;23.378;2022-10-16T09:50:24;96002.56;;;24.32;40.07
20077;BME280;12348;42.710;23.378;2022-10-16T09:53:03;95996.38;;;22.26;42.26
20077;BME280;12348;42.710;23.378;2022-10-16T09:55:30;95997.69;;;23.50;41.59
20077;BME280;12348;42.710;23.378;2022-10-16T09:57:57;95992.72;;;24.15;40.16
20077;BME280;12348;42.710;23.378;2022-10-16T10:00:24;95998.31;;;24.85;39.40
20077;BME280;12348;42.710;23.378;2022-10-16T10:02:53;95995.88;;;22.61;42.53
20077;BME280;12348;42.710;23.378;2022-10-16T10:05:22;95992.66;;;22.59;43.73
20077;BME280;12348;42.710;23.378;2022-10-16T10:07:55;95990.03;;;22.62;44.78
20077;BME280;12348;42.710;23.378;2022-10-16T10:10:24;95990.94;;;23.19;43.67
20077;BME280;12348;42.710;23.378;2022-10-16T10:12:54;95981.59;;;23.64;41.62
20077;BME280;12348;42.710;23.378;2022-10-16T10:15:22;95980.47;;;24.28;40.30
20077;BME280;12348;42.710;23.378;2022-10-16T10:17:53;95977.75;;;24.99;39.65
20077;BME280;12348;42.710;23.378;2022-10-16T10:20:24;95977.91;;;24.71;39.77
20077;BME280;12348;42.710;23.378;2022-10-16T10:22:51;95979.34;;;23.54;41.27
20077;BME280;12348;42.710;23.378;2022-10-16T10:25:32;95977.91;;;23.88;41.72
20077;BME280;12348;42.710;23.378;2022-10-16T10:28:23;95979.66;;;23.36;41.63
20077;BME280;12348;42.710;23.378;2022-10-16T10:31:02;95975.06;;;23.84;41.69
20077;BME280;12348;42.710;23.378;2022-10-16T10:33:43;95960.75;;;24.42;40.44
20077;BME280;12348;42.710;23.378;2022-10-16T10:36:30;95971.38;;;22.68;44.18
20077;BME280;12348;42.710;23.378;2022-10-16T10:39:00;95969.09;;;23.10;42.91
20077;BME280;12348;42.710;23.378;2022-10-16T10:41:59;95957.59;;;23.48;41.85
20077;BME280;12348;42.710;23.378;2022-10-16T10:44:50;95963.16;;;23.36;41.45
20077;BME280;12348;42.710;23.378;2022-10-16T10:47:27;95964.34;;;22.42;43.41
20077;BME280;12348;42.710;23.378;2022-10-16T10:50:07;95954.66;;;22.73;42.86
20077;BME280;12348;42.710;23.378;2022-10-16T10:52:43;95950.50;;;22.39;43.97
20077;BME280;12348;42.710;23.378;2022-10-16T10:55:21;95942.19;;;22.23;44.44
20077;BME280;12348;42.710;23.378;2022-10-16T10:58:10;95950.19;;;22.93;42.27
20077;BME280;12348;42.710;23.378;2022-10-16T11:00:49;95950.97;;;23.50;41.68
20077;BME280;12348;42.710;23.378;2022-10-16T11:06:08;95942.16;;;23.60;41.42
20077;BME280;12348;42.710;23.378;2022-10-16T11:08:40;95938.50;;;23.40;41.48
20077;BME280;12348;42.710;23.378;2022-10-16T11:11:14;95937.06;;;23.74;41.26
20077;BME280;12348;42.710;23.378;2022-10-16T11:13:47;95928.38;;;24.04;41.36
20077;BME280;12348;42.710;23.378;2022-10-16T11:16:20;95932.66;;;22.97;41.62
20077;BME280;12348;42.710;23.378;2022-10-16T11:18:52;95923.97;;;22.83;42.65
20077;BME280;12348;42.710;23.378;2022-10-16T11:21:24;95934.06;;;22.79;41.95
20077;BME280;12348;42.710;23.378;2022-10-16T11:23:55;95930.53;;;22.79;42.50
20077;BME280;12348;42.710;23.378;2022-10-16T11:26:26;95925.13;;;22.82;42.47
20077;BME280;12348;42.710;23.378;2022-10-16T11:28:56;95925.66;;;22.47;43.48
20077;BME280;12348;42.710;23.378;2022-10-16T11:31:28;95924.63;;;22.92;41.56
20077;BME280;12348;42.710;23.378;2022-10-16T11:34:03;95921.50;;;23.34;42.22
20077;BME280;12348;42.710;23.378;2022-10-16T11:36:38;95924.53;;;22.48;41.71
20077;BME280;12348;42.710;23.378;2022-10-16T11:39:12;95919.06;;;21.99;43.27
20077;BME280;12348;42.710;23.378;2022-10-16T11:41:48;95920.66;;;22.25;43.28
20077;BME280;12348;42.710;23.378;2022-10-16T11:44:36;95921.09;;;22.39;42.64
20077;BME280;12348;42.710;23.378;2022-10-16T11:47:11;95922.59;;;22.77;42.30
20077;BME280;12348;42.710;23.378;2022-10-16T11:49:41;95920.91;;;23.13;42.73
20077;BME280;12348;42.710;23.378;2022-10-16T11:52:16;95918.69;;;22.90;41.68
20077;BME280;12348;42.710;23.378;2022-10-16T11:54:49;95918.31;;;23.04;42.31
20077;BME280;12348;42.710;23.378;2022-10-16T11:57:20;95922.91;;;22.88;41.78
20077;BME280;12348;42.710;23.378;2022-10-16T11:59:52;95928.19;;;21.79;43.12
20077;BME280;12348;42.710;23.378;2022-10-16T12:02:32;95916.91;;;22.70;42.98
20077;BME280;12348;42.710;23.378;2022-10-16T12:05:11;95921.97;;;23.08;41.46
20077;BME280;12348;42.710;23.378;2022-10-16T12:07:48;95920.75;;;22.81;42.04
20077;BME280;12348;42.710;23.378;2022-10-16T12:10:21;95920.13;;;22.72;42.75
20077;BME280;12348;42.710;23.378;2022-10-16T12:12:48;95912.72;;;22.60;42.59
20077;BME280;12348;42.710;23.378;2022-10-16T12:15:21;95917.78;;;22.86;43.19
20077;BME280;12348;42.710;23.378;2022-10-16T12:17:48;95911.25;;;23.19;42.31
20077;BME280;12348;42.710;23.378;2022-10-16T12:20:22;95918.84;;;23.10;42.07
20077;BME280;12348;42.710;23.378;2022-10-16T12:22:52;95917.56;;;22.91;41.69
20077;BME280;12348;42.710;23.378;2022-10-16T12:25:24;95920.38;;;22.55;43.06
20077;BME280;12348;42.710;23.378;2022-10-16T12:27:58;95908.72;;;22.58;42.98
20077;BME280;12348;42.710;23.378;2022-10-16T12:30:27;95914.03;;;22.38;43.11
20077;BME280;12348;42.710;23.378;2022-10-16T12:32:56;95918.59;;;22.46;42.29
20077;BME280;12348;42.710;23.378;2022-10-16T12:35:25;95913.41;;;22.57;42.71
20077;BME280;12348;42.710;23.378;2022-10-16T12:38:03;95917.09;;;22.37;41.86
20077;BME280;12348;42.710;23.378;2022-10-16T12:40:32;95917.13;;;22.24;42.12
20077;BME280;12348;42.710;23.378;2022-10-16T12:43:11;95917.25;;;22.16;40.90
20077;BME280;12348;42.710;23.378;2022-10-16T12:45:38;95921.34;;;21.97;40.26
20077;BME280;12348;42.710;23.378;2022-10-16T12:48:20;95910.97;;;21.78;40.91
20077;BME280;12348;42.710;23.378;2022-10-16T12:50:47;95921.81;;;21.75;40.62
20077;BME280;12348;42.710;23.378;2022-10-16T12:53:20;95921.25;;;20.70;42.38
20077;BME280;12348;42.710;23.378;2022-10-16T12:55:55;95926.69;;;20.28;44.04
20077;BME280;12348;42.710;23.378;2022-10-16T12:58:43;95928.16;;;20.46;42.88
20077;BME280;12348;42.710;23.378;2022-10-16T13:01:25;95925.81;;;20.66;42.14
20077;BME280;12348;42.710;23.378;2022-10-16T13:06:51;95929.31;;;19.86;42.88
20077;BME280;12348;42.710;23.378;2022-10-16T13:09:33;95932.69;;;19.45;44.21
20077;BME280;12348;42.710;23.378;2022-10-16T13:12:21;95924.72;;;19.78;44.54
20077;BME280;12348;42.710;23.378;2022-10-16T13:15:09;95929.03;;;19.79;44.37